createdAt,value
2022-10-26T00:01:04.169Z,101476.53
2022-10-26T00:03:30.939Z,101475.69
2022-10-26T00:06:03.895Z,101476.53
2022-10-26T00:08:30.565Z,101481.91
2022-10-26T00:11:00.395Z,101488.16
2022-10-26T00:13:27.582Z,101484.66
2022-10-26T00:15:54.897Z,101476.69
2022-10-26T00:18:22.125Z,101477.66
2022-10-26T00:20:48.853Z,101472.44
2022-10-26T00:23:15.637Z,101484.81
2022-10-26T00:25:42.303Z,101491.09
2022-10-26T00:28:08.996Z,101496.44
2022-10-26T00:30:39.524Z,101494.69
2022-10-26T00:33:06.177Z,101496.53
2022-10-26T00:35:45.571Z,101505.44
2022-10-26T00:38:12.856Z,101501.94
2022-10-26T00:40:39.656Z,101501.94
2022-10-26T00:43:37.127Z,101505.50
2022-10-26T00:46:06.025Z,101505.56
2022-10-26T00:48:36.322Z,101508.22
2022-10-26T00:51:06.673Z,101502.91
2022-10-26T00:53:33.448Z,101495.00
2022-10-26T00:56:00.598Z,101503.91
2022-10-26T00:58:27.336Z,101493.25
2022-10-26T01:00:54.705Z,101498.66
2022-10-26T01:03:25.460Z,101490.69
2022-10-26T01:05:53.220Z,101490.78
2022-10-26T01:08:20.035Z,101496.09
2022-10-26T01:10:46.972Z,101491.69
2022-10-26T01:13:14.736Z,101490.81
2022-10-26T01:15:53.537Z,101494.34
2022-10-26T01:18:28.640Z,101490.91
2022-10-26T01:21:34.110Z,101486.47
2022-10-26T01:24:09.800Z,101490.94
2022-10-26T01:27:01.833Z,101479.44
2022-10-26T01:29:47.495Z,101493.72
2022-10-26T01:32:33.211Z,101483.09
2022-10-26T01:35:18.224Z,101476.06
2022-10-26T01:38:10.742Z,101478.72
2022-10-26T01:40:42.090Z,101470.78
2022-10-26T01:43:10.902Z,101472.59
2022-10-26T01:45:40.342Z,101469.94
2022-10-26T01:48:08.323Z,101467.38
2022-10-26T01:50:35.728Z,101478.91
2022-10-26T01:53:02.357Z,101469.09
2022-10-26T01:55:42.015Z,101470.91
2022-10-26T01:59:04.438Z,101467.41
2022-10-26T02:01:49.034Z,101463.88
2022-10-26T02:04:15.938Z,101462.97
2022-10-26T02:06:42.594Z,101452.38
2022-10-26T02:09:20.547Z,101459.50
2022-10-26T02:11:48.919Z,101451.59
2022-10-26T02:14:24.387Z,101464.84
2022-10-26T02:16:56.338Z,101460.47
2022-10-26T02:19:33.988Z,101464.06
2022-10-26T02:22:12.695Z,101468.53
2022-10-26T02:24:40.043Z,101463.22
2022-10-26T02:27:08.719Z,101464.09
2022-10-26T02:29:36.186Z,101465.03
2022-10-26T02:32:03.781Z,101468.59
2022-10-26T02:34:31.191Z,101455.34
2022-10-26T02:37:00.693Z,101461.47
2022-10-26T02:39:32.576Z,101465.06
2022-10-26T02:42:02.704Z,101470.41
2022-10-26T02:44:31.791Z,101464.31
2022-10-26T02:46:58.773Z,101470.53
2022-10-26T02:49:25.582Z,101463.44
2022-10-26T02:52:07.272Z,101461.69
2022-10-26T02:54:42.591Z,101462.63
2022-10-26T02:57:14.958Z,101467.94
2022-10-26T02:59:43.555Z,101464.34
2022-10-26T03:02:11.351Z,101458.19
2022-10-26T03:04:38.033Z,101466.16
2022-10-26T03:07:04.660Z,101470.63
2022-10-26T03:09:31.336Z,101469.69
2022-10-26T03:11:58.026Z,101465.28
2022-10-26T03:14:24.811Z,101466.16
2022-10-26T03:19:38.094Z,101475.94
2022-10-26T03:22:04.761Z,101475.06
2022-10-26T03:24:31.461Z,101469.75
2022-10-26T03:27:01.131Z,101471.50
2022-10-26T03:29:28.969Z,101471.50
2022-10-26T03:31:55.641Z,101467.09
2022-10-26T03:34:22.299Z,101467.03
2022-10-26T03:36:49.182Z,101467.03
2022-10-26T03:39:15.864Z,101462.63
2022-10-26T03:41:42.730Z,101466.16
2022-10-26T03:44:09.419Z,101457.31
2022-10-26T03:46:36.120Z,101456.44
2022-10-26T03:49:02.753Z,101457.34
2022-10-26T03:51:29.397Z,101465.34
2022-10-26T03:53:56.227Z,101463.59
2022-10-26T03:56:23.031Z,101465.31
2022-10-26T03:58:49.777Z,101470.66
2022-10-26T04:01:16.503Z,101482.22
2022-10-26T04:03:43.186Z,101469.78
2022-10-26T04:06:09.834Z,101477.78
2022-10-26T04:08:36.499Z,101470.75
2022-10-26T04:11:04.682Z,101481.41
2022-10-26T04:13:31.881Z,101481.38
2022-10-26T04:15:58.693Z,101480.50
2022-10-26T04:18:25.438Z,101470.84
2022-10-26T04:20:52.115Z,101486.72
2022-10-26T04:23:19.931Z,101482.31
2022-10-26T04:25:46.702Z,101476.94
2022-10-26T04:28:14.167Z,101467.22
2022-10-26T04:30:41.048Z,101469.00
2022-10-26T04:33:07.971Z,101468.97
2022-10-26T04:35:35.225Z,101476.06
2022-10-26T04:38:04.375Z,101484.94
2022-10-26T04:40:32.204Z,101477.84
2022-10-26T04:42:58.863Z,101483.16
2022-10-26T04:45:28.237Z,101478.72
2022-10-26T04:48:05.780Z,101480.47
2022-10-26T04:50:32.645Z,101478.72
2022-10-26T04:52:59.457Z,101481.41
2022-10-26T04:55:26.137Z,101485.84
2022-10-26T04:57:55.963Z,101475.13
2022-10-26T05:00:25.327Z,101476.88
2022-10-26T05:02:52.049Z,101480.47
2022-10-26T05:05:18.978Z,101477.78
2022-10-26T05:07:54.058Z,101466.25
2022-10-26T05:10:20.670Z,101464.47
2022-10-26T05:12:54.303Z,101467.13
2022-10-26T05:15:21.095Z,101459.09
2022-10-26T05:17:48.325Z,101470.63
2022-10-26T05:20:15.409Z,101465.34
2022-10-26T05:22:42.123Z,101469.75
2022-10-26T05:25:09.184Z,101470.66
2022-10-26T05:27:35.860Z,101461.78
2022-10-26T05:30:02.631Z,101468.84
2022-10-26T05:32:29.407Z,101472.41
2022-10-26T05:34:56.192Z,101465.31
2022-10-26T05:37:22.882Z,101472.41
2022-10-26T05:39:49.540Z,101472.41
2022-10-26T05:42:16.264Z,101472.44
2022-10-26T05:44:42.942Z,101469.78
2022-10-26T05:47:09.617Z,101474.25
2022-10-26T05:49:36.279Z,101480.50
2022-10-26T05:52:02.953Z,101477.88
2022-10-26T05:54:29.745Z,101479.59
2022-10-26T05:56:56.694Z,101490.25
2022-10-26T05:59:23.597Z,101476.03
2022-10-26T06:02:08.697Z,101480.47
2022-10-26T06:04:43.466Z,101484.06
2022-10-26T06:07:18.014Z,101487.63
2022-10-26T06:09:45.156Z,101496.50
2022-10-26T06:12:14.487Z,101500.94
2022-10-26T06:14:43.954Z,101492.06
2022-10-26T06:17:19.878Z,101494.69
2022-10-26T06:23:16.598Z,101492.13
2022-10-26T06:25:56.191Z,101492.13
2022-10-26T06:28:22.958Z,101502.69
2022-10-26T06:30:49.779Z,101504.50
2022-10-26T06:33:30.946Z,101502.69
2022-10-26T06:36:06.106Z,101508.94
2022-10-26T06:38:34.892Z,101514.25
2022-10-26T06:41:01.926Z,101507.13
2022-10-26T06:43:33.087Z,101506.22
2022-10-26T06:46:23.961Z,101511.53
2022-10-26T06:49:19.374Z,101506.19
2022-10-26T06:51:56.674Z,101502.66
2022-10-26T06:54:53.450Z,101507.88
2022-10-26T06:57:23.396Z,101513.19
2022-10-26T06:59:53.021Z,101511.38
2022-10-26T07:02:20.845Z,101513.13
2022-10-26T07:04:48.191Z,101508.72
2022-10-26T07:07:21.745Z,101510.44
2022-10-26T07:09:48.778Z,101502.44
2022-10-26T07:12:15.655Z,101511.25
2022-10-26T07:14:42.876Z,101512.97
2022-10-26T07:17:11.168Z,101516.47
2022-10-26T07:19:38.026Z,101511.88
2022-10-26T07:22:05.832Z,101518.03
2022-10-26T07:24:32.588Z,101514.44
2022-10-26T07:26:59.695Z,101520.53
2022-10-26T07:29:27.386Z,101519.53
2022-10-26T07:31:55.228Z,101520.50
2022-10-26T07:34:22.879Z,101521.44
2022-10-26T07:36:52.228Z,101521.25
2022-10-26T07:39:19.251Z,101519.34
2022-10-26T07:41:48.002Z,101521.75
2022-10-26T07:44:14.666Z,101512.72
2022-10-26T07:46:41.390Z,101525.16
2022-10-26T07:49:08.113Z,101530.47
2022-10-26T07:51:36.014Z,101517.78
2022-10-26T07:54:02.933Z,101514.88
2022-10-26T07:56:30.886Z,101520.16
2022-10-26T07:58:58.681Z,101512.16
2022-10-26T08:01:26.766Z,101523.72
2022-10-26T08:03:55.463Z,101521.13
2022-10-26T08:06:22.710Z,101528.03
2022-10-26T08:08:53.126Z,101533.03
2022-10-26T08:11:20.307Z,101529.78
2022-10-26T08:13:47.181Z,101527.56
2022-10-26T08:16:16.428Z,101533.63
2022-10-26T08:18:44.227Z,101534.28
2022-10-26T08:21:21.692Z,101525.78
2022-10-26T08:23:57.135Z,101525.63
2022-10-26T08:26:25.241Z,101537.34
2022-10-26T08:28:52.698Z,101523.47
2022-10-26T08:31:20.844Z,101521.75
2022-10-26T08:33:48.265Z,101522.09
2022-10-26T08:36:24.195Z,101524.41
2022-10-26T08:38:51.459Z,101526.34
2022-10-26T08:41:34.239Z,101514.69
2022-10-26T08:44:10.485Z,101520.38
2022-10-26T08:46:42.652Z,101526.06
2022-10-26T08:49:21.354Z,101531.06
2022-10-26T08:51:50.982Z,101519.59
2022-10-26T08:54:41.436Z,101522.66
2022-10-26T08:57:36.053Z,101519.31
2022-10-26T09:00:08.354Z,101521.44
2022-10-26T09:02:35.594Z,101523.88
2022-10-26T09:05:02.441Z,101520.78
2022-10-26T09:07:57.261Z,101514.63
2022-10-26T09:10:42.404Z,101519.53
2022-10-26T09:13:19.806Z,101509.16
2022-10-26T09:15:50.325Z,101511.06
2022-10-26T09:18:33.616Z,101516.47
2022-10-26T09:21:31.238Z,101520.13
2022-10-26T09:24:26.954Z,101523.59
2022-10-26T09:27:16.423Z,101518.91
2022-10-26T09:29:45.123Z,101518.72
2022-10-26T09:32:19.798Z,101511.50
2022-10-26T09:34:55.516Z,101513.03
2022-10-26T09:37:37.578Z,101517.13
2022-10-26T09:40:16.625Z,101516.38
2022-10-26T09:42:59.517Z,101515.25
2022-10-26T09:45:33.891Z,101523.78
2022-10-26T09:48:11.596Z,101525.69
2022-10-26T09:50:40.622Z,101513.16
2022-10-26T09:53:07.304Z,101520.25
2022-10-26T09:55:39.657Z,101517.44
2022-10-26T09:58:15.656Z,101519.66
2022-10-26T10:00:44.528Z,101523.81
2022-10-26T10:03:28.943Z,101524.97
2022-10-26T10:06:19.719Z,101527.13
2022-10-26T10:09:11.575Z,101523.09
2022-10-26T10:11:46.128Z,101531.47
2022-10-26T10:14:17.963Z,101525.38
2022-10-26T10:17:01.695Z,101526.84
2022-10-26T10:19:30.575Z,101532.66
2022-10-26T10:22:02.849Z,101525.47
2022-10-26T10:24:32.937Z,101529.06
2022-10-26T10:27:05.589Z,101532.22
2022-10-26T10:29:34.634Z,101515.72
2022-10-26T10:32:03.341Z,101522.47
2022-10-26T10:34:37.650Z,101515.28
2022-10-26T10:37:05.498Z,101520.34
2022-10-26T10:39:35.446Z,101507.59
2022-10-26T10:42:04.715Z,101513.59
2022-10-26T10:44:34.044Z,101513.31
2022-10-26T10:47:04.940Z,101517.75
2022-10-26T10:49:36.372Z,101503.41
2022-10-26T10:52:04.590Z,101508.84
2022-10-26T10:54:33.973Z,101517.03
2022-10-26T10:57:18.677Z,101514.47
2022-10-26T10:59:51.951Z,101522.09
2022-10-26T11:02:43.787Z,101516.22
2022-10-26T11:05:23.343Z,101522.34
2022-10-26T11:07:56.822Z,101508.59
2022-10-26T11:10:28.160Z,101509.03
2022-10-26T11:13:06.964Z,101507.09
2022-10-26T11:15:39.431Z,101503.72
2022-10-26T11:18:09.801Z,101506.63
2022-10-26T11:20:42.405Z,101500.03
2022-10-26T11:23:13.845Z,101507.03
2022-10-26T11:25:59.206Z,101502.00
2022-10-26T11:28:41.345Z,101509.47
2022-10-26T11:31:16.630Z,101505.47
2022-10-26T11:34:12.521Z,101504.94
2022-10-26T11:36:42.920Z,101494.56
2022-10-26T11:39:44.082Z,101500.50
2022-10-26T11:42:22.232Z,101495.91
2022-10-26T11:45:10.578Z,101493.63
2022-10-26T11:48:17.467Z,101489.16
2022-10-26T11:50:47.401Z,101502.38
2022-10-26T11:53:18.835Z,101487.69
2022-10-26T11:55:53.457Z,101477.94
2022-10-26T11:58:28.839Z,101485.56
2022-10-26T12:00:59.137Z,101484.38
2022-10-26T12:03:28.330Z,101483.41
2022-10-26T12:05:55.107Z,101487.72
2022-10-26T12:08:31.299Z,101484.22
2022-10-26T12:11:09.976Z,101481.28
2022-10-26T12:13:44.271Z,101479.03
2022-10-26T12:16:35.948Z,101476.91
2022-10-26T12:19:09.075Z,101477.91
2022-10-26T12:21:36.770Z,101473.03
2022-10-26T12:24:22.269Z,101474.88
2022-10-26T12:27:31.003Z,101471.91
2022-10-26T12:30:18.954Z,101472.59
2022-10-26T12:32:48.649Z,101478.53
2022-10-26T12:35:44.911Z,101473.44
2022-10-26T12:38:27.964Z,101474.09
2022-10-26T12:41:07.576Z,101479.09
2022-10-26T12:43:40.541Z,101474.72
2022-10-26T12:46:13.337Z,101482.78
2022-10-26T12:48:45.850Z,101478.25
2022-10-26T12:54:04.129Z,101482.00
2022-10-26T12:56:37.367Z,101488.47
2022-10-26T12:59:32.890Z,101487.06
2022-10-26T13:02:37.186Z,101478.31
2022-10-26T13:05:25.697Z,101474.00
2022-10-26T13:07:52.795Z,101474.84
2022-10-26T13:10:24.842Z,101463.28
2022-10-26T13:12:54.118Z,101467.06
2022-10-26T13:15:36.592Z,101464.88
2022-10-26T13:18:10.215Z,101465.06
2022-10-26T13:20:38.376Z,101469.25
2022-10-26T13:23:16.639Z,101474.56
2022-10-26T13:26:02.536Z,101468.63
2022-10-26T13:28:34.275Z,101479.47
2022-10-26T13:31:01.084Z,101478.63
2022-10-26T13:33:35.451Z,101480.09
2022-10-26T13:36:14.022Z,101469.56
2022-10-26T13:38:40.835Z,101480.97
2022-10-26T13:41:15.560Z,101478.03
2022-10-26T13:43:43.274Z,101488.91
2022-10-26T13:46:23.599Z,101479.13
2022-10-26T13:48:50.490Z,101481.59
2022-10-26T13:51:25.200Z,101485.25
2022-10-26T13:54:00.559Z,101482.38
2022-10-26T13:56:34.140Z,101491.19
2022-10-26T13:59:03.538Z,101491.72
2022-10-26T14:01:34.861Z,101491.09
2022-10-26T14:04:25.790Z,101484.53
2022-10-26T14:06:53.396Z,101488.56
2022-10-26T14:09:21.017Z,101492.50
2022-10-26T14:11:58.390Z,101489.38
2022-10-26T14:14:27.789Z,101489.28
2022-10-26T14:16:54.603Z,101493.59
2022-10-26T14:19:31.034Z,101495.91
2022-10-26T14:21:58.310Z,101500.31
2022-10-26T14:24:45.853Z,101502.09
2022-10-26T14:27:44.829Z,101509.41
2022-10-26T14:30:30.423Z,101509.13
2022-10-26T14:32:58.041Z,101511.75
2022-10-26T14:35:29.810Z,101511.66
2022-10-26T14:38:07.700Z,101509.97
2022-10-26T14:40:37.751Z,101517.94
2022-10-26T14:43:05.762Z,101514.59
2022-10-26T14:45:53.080Z,101520.00
2022-10-26T14:48:34.499Z,101516.31
2022-10-26T14:51:17.837Z,101516.81
2022-10-26T14:53:50.328Z,101512.63
2022-10-26T14:56:24.497Z,101526.81
2022-10-26T14:58:51.805Z,101526.81
2022-10-26T15:01:33.170Z,101526.22
2022-10-26T15:04:05.838Z,101522.78
2022-10-26T15:06:40.180Z,101517.72
2022-10-26T15:09:19.244Z,101526.03
2022-10-26T15:11:49.774Z,101529.22
2022-10-26T15:14:18.956Z,101524.06
2022-10-26T15:16:56.081Z,101519.09
2022-10-26T15:19:26.302Z,101526.28
2022-10-26T15:21:56.213Z,101525.03
2022-10-26T15:24:34.471Z,101528.13
2022-10-26T15:27:19.399Z,101540.59
2022-10-26T15:29:51.292Z,101539.00
2022-10-26T15:32:31.824Z,101532.00
2022-10-26T15:35:27.799Z,101533.09
2022-10-26T15:37:55.830Z,101535.97
2022-10-26T15:42:54.143Z,101540.91
2022-10-26T15:45:30.109Z,101542.13
2022-10-26T15:47:58.039Z,101538.88
2022-10-26T15:50:27.796Z,101545.44
2022-10-26T15:53:09.292Z,101543.09
2022-10-26T15:55:38.067Z,101547.13
2022-10-26T15:58:04.910Z,101550.19
2022-10-26T16:00:32.383Z,101555.81
2022-10-26T16:03:00.030Z,101556.25
2022-10-26T16:05:28.001Z,101563.81
2022-10-26T16:07:54.853Z,101566.88
2022-10-26T16:10:25.433Z,101568.88
2022-10-26T16:12:53.237Z,101563.84
2022-10-26T16:15:25.917Z,101567.72
2022-10-26T16:17:54.838Z,101563.50
2022-10-26T16:20:24.519Z,101567.19
2022-10-26T16:22:52.649Z,101559.47
2022-10-26T16:25:25.697Z,101557.94
2022-10-26T16:27:55.294Z,101564.31
2022-10-26T16:30:24.844Z,101564.47
2022-10-26T16:32:56.497Z,101562.84
2022-10-26T16:35:23.214Z,101565.56
2022-10-26T16:37:51.189Z,101568.41
2022-10-26T16:40:18.594Z,101572.25
2022-10-26T16:42:48.519Z,101571.63
2022-10-26T16:45:17.844Z,101564.78
2022-10-26T16:47:44.587Z,101571.97
2022-10-26T16:50:12.707Z,101584.69
2022-10-26T16:52:43.606Z,101582.94
2022-10-26T16:55:10.425Z,101582.13
2022-10-26T16:57:37.729Z,101589.31
2022-10-26T17:00:06.677Z,101592.06
2022-10-26T17:02:34.874Z,101596.63
2022-10-26T17:05:04.371Z,101593.13
2022-10-26T17:07:33.855Z,101599.47
2022-10-26T17:10:00.636Z,101603.09
2022-10-26T17:15:17.275Z,101609.53
2022-10-26T17:17:46.671Z,101608.66
2022-10-26T17:20:13.923Z,101610.56
2022-10-26T17:22:40.779Z,101609.66
2022-10-26T17:25:07.793Z,101610.56
2022-10-26T17:27:34.465Z,101619.59
2022-10-26T17:30:02.810Z,101618.72
2022-10-26T17:32:30.921Z,101623.34
2022-10-26T17:34:57.583Z,101625.22
2022-10-26T17:37:24.348Z,101621.69
2022-10-26T17:39:52.149Z,101623.50
2022-10-26T17:42:18.999Z,101628.94
2022-10-26T17:44:47.600Z,101633.38
2022-10-26T17:47:14.288Z,101636.06
2022-10-26T17:49:40.976Z,101632.63
2022-10-26T17:52:07.920Z,101641.63
2022-10-26T17:54:34.857Z,101644.34
2022-10-26T17:57:01.594Z,101651.56
2022-10-26T17:59:28.870Z,101652.41
2022-10-26T18:01:55.729Z,101653.38
2022-10-26T18:04:23.361Z,101659.66
2022-10-26T18:06:50.075Z,101661.50
2022-10-26T18:09:17.555Z,101669.56
2022-10-26T18:11:44.199Z,101674.06
2022-10-26T18:14:12.080Z,101673.25
2022-10-26T18:16:40.895Z,101677.00
2022-10-26T18:19:07.676Z,101669.81
2022-10-26T18:21:37.812Z,101684.25
2022-10-26T18:24:07.701Z,101682.47
2022-10-26T18:26:35.123Z,101685.16
2022-10-26T18:29:02.303Z,101694.03
2022-10-26T18:31:30.849Z,101695.00
2022-10-26T18:34:03.266Z,101688.81
2022-10-26T18:36:31.168Z,101698.56
2022-10-26T18:38:58.473Z,101700.38
2022-10-26T18:41:26.095Z,101703.97
2022-10-26T18:43:55.146Z,101702.28
2022-10-26T18:46:24.722Z,101702.34
2022-10-26T18:48:52.147Z,101703.31
2022-10-26T18:51:21.171Z,101702.50
2022-10-26T18:53:50.913Z,101704.22
2022-10-26T18:56:19.580Z,101705.22
2022-10-26T18:58:49.536Z,101705.22
2022-10-26T19:01:23.212Z,101700.78
2022-10-26T19:03:59.385Z,101700.03
2022-10-26T19:06:29.710Z,101703.69
2022-10-26T19:08:56.829Z,101706.53
2022-10-26T19:11:25.478Z,101717.28
2022-10-26T19:13:54.112Z,101714.81
2022-10-26T19:16:43.980Z,101713.19
2022-10-26T19:19:10.966Z,101720.47
2022-10-26T19:21:38.901Z,101718.81
2022-10-26T19:24:13.073Z,101721.66
2022-10-26T19:26:43.450Z,101721.78
2022-10-26T19:29:16.570Z,101720.19
2022-10-26T19:31:46.402Z,101728.44
2022-10-26T19:34:14.265Z,101726.88
2022-10-26T19:36:44.932Z,101729.56
2022-10-26T19:39:14.233Z,101736.03
2022-10-26T19:41:40.922Z,101735.41
2022-10-26T19:44:08.057Z,101740.81
2022-10-26T19:46:34.877Z,101740.03
2022-10-26T19:49:02.640Z,101749.13
2022-10-26T19:51:31.028Z,101751.03
2022-10-26T19:54:03.185Z,101744.94
2022-10-26T19:56:36.839Z,101757.56
2022-10-26T19:59:04.288Z,101760.34
2022-10-26T20:01:31.104Z,101756.06
2022-10-26T20:03:58.572Z,101768.66
2022-10-26T20:06:25.258Z,101764.31
2022-10-26T20:08:53.199Z,101768.81
2022-10-26T20:11:20.183Z,101770.84
2022-10-26T20:13:48.085Z,101771.75
2022-10-26T20:16:17.013Z,101772.75
2022-10-26T20:18:47.715Z,101772.94
2022-10-26T20:21:17.085Z,101789.13
2022-10-26T20:23:44.716Z,101796.38
2022-10-26T20:26:18.650Z,101789.38
2022-10-26T20:28:49.254Z,101797.53
2022-10-26T20:31:17.220Z,101798.56
2022-10-26T20:33:44.065Z,101801.34
2022-10-26T20:36:11.516Z,101806.72
2022-10-26T20:38:39.622Z,101801.53
2022-10-26T20:41:10.290Z,101805.19
2022-10-26T20:43:41.297Z,101799.03
2022-10-26T20:46:22.643Z,101814.28
2022-10-26T20:48:50.537Z,101809.03
2022-10-26T20:52:15.275Z,101816.25
2022-10-26T20:55:00.118Z,101820.81
2022-10-26T20:57:30.651Z,101818.28
2022-10-26T21:00:06.037Z,101819.19
2022-10-26T21:02:34.104Z,101821.03
2022-10-26T21:05:02.514Z,101823.81
2022-10-26T21:07:29.202Z,101820.28
2022-10-26T21:09:56.092Z,101828.44
2022-10-26T21:12:22.807Z,101825.78
2022-10-26T21:14:51.560Z,101830.31
2022-10-26T21:17:18.242Z,101823.25
2022-10-26T21:19:46.109Z,101829.66
2022-10-26T21:22:13.940Z,101827.03
2022-10-26T21:24:40.582Z,101829.75
2022-10-26T21:27:07.281Z,101838.75
2022-10-26T21:29:33.961Z,101838.88
2022-10-26T21:32:00.712Z,101839.91
2022-10-26T21:34:27.400Z,101847.00
2022-10-26T21:36:54.313Z,101844.50
2022-10-26T21:39:21.211Z,101848.13
2022-10-26T21:41:47.874Z,101849.13
2022-10-26T21:44:42.209Z,101866.13
2022-10-26T21:47:01.730Z,101857.25
2022-10-26T21:49:28.457Z,101856.53
2022-10-26T21:51:56.905Z,101867.28
2022-10-26T21:54:24.255Z,101869.13
2022-10-26T21:56:50.948Z,101862.06
2022-10-26T21:59:17.607Z,101866.63
2022-10-26T22:01:44.385Z,101860.50
2022-10-26T22:04:11.665Z,101863.25
2022-10-26T22:06:38.607Z,101863.19
2022-10-26T22:09:05.378Z,101863.25
2022-10-26T22:11:33.898Z,101863.31
2022-10-26T22:14:00.704Z,101864.16
2022-10-26T22:16:29.809Z,101859.78
2022-10-26T22:18:58.514Z,101865.19
2022-10-26T22:21:26.961Z,101873.22
2022-10-26T22:23:54.464Z,101868.84
2022-10-26T22:26:23.015Z,101874.25
2022-10-26T22:28:52.156Z,101868.06
2022-10-26T22:31:24.503Z,101868.13
2022-10-26T22:34:02.065Z,101874.41
2022-10-26T22:36:32.002Z,101874.47
2022-10-26T22:38:58.690Z,101876.22
2022-10-26T22:41:25.492Z,101872.72
2022-10-26T22:43:52.367Z,101884.41
2022-10-26T22:46:25.094Z,101880.00
2022-10-26T22:48:57.680Z,101879.13
2022-10-26T22:51:25.847Z,101887.19
2022-10-26T22:53:57.657Z,101894.38
2022-10-26T22:58:53.577Z,101884.66
2022-10-26T23:01:23.259Z,101889.16
2022-10-26T23:03:50.012Z,101887.47
2022-10-26T23:06:18.299Z,101896.41
2022-10-26T23:08:45.480Z,101887.56
2022-10-26T23:11:17.251Z,101896.56
2022-10-26T23:13:44.354Z,101901.91
2022-10-26T23:16:13.578Z,101908.13
2022-10-26T23:18:40.768Z,101900.19
2022-10-26T23:21:08.935Z,101901.13
2022-10-26T23:23:36.013Z,101905.56
2022-10-26T23:26:08.774Z,101918.09
2022-10-26T23:28:35.899Z,101917.22
2022-10-26T23:31:02.592Z,101920.00
2022-10-26T23:33:29.484Z,101917.31
2022-10-26T23:35:57.513Z,101914.66
2022-10-26T23:38:25.010Z,101919.25
2022-10-26T23:40:53.155Z,101921.03
2022-10-26T23:43:20.160Z,101923.72
2022-10-26T23:45:47.255Z,101923.72
2022-10-26T23:48:14.226Z,101923.78
2022-10-26T23:50:44.658Z,101928.28
2022-10-26T23:53:12.389Z,101922.09
2022-10-26T23:55:39.327Z,101925.72
2022-10-26T23:58:06.235Z,101924.81
